sensor_id;sensor_type;location;lat;lon;timestamp;noise_LAeq;noise_LA_min;noise_LA_max;noise_LA01;noise_LA95
74214;Laerm;62576;55.694;37.494;2023-05-27T00:01:51;61.27;55.85;71.63;;
74214;Laerm;62576;55.694;37.494;2023-05-27T00:04:21;59.78;56.04;66.63;;
74214;Laerm;62576;55.694;37.494;2023-05-27T00:06:51;60.34;55.37;68.12;;
74214;Laerm;62576;55.694;37.494;2023-05-27T00:09:21;58.51;55.88;66.16;;
74214;Laerm;62576;55.694;37.494;2023-05-27T00:11:51;59.16;55.85;66.54;;
74214;Laerm;62576;55.694;37.494;2023-05-27T00:14:21;58.44;55.85;63.32;;
74214;Laerm;62576;55.694;37.494;2023-05-27T00:16:52;59.20;55.41;66.93;;
74214;Laerm;62576;55.694;37.494;2023-05-27T00:19:23;60.35;55.78;68.52;;
74214;Laerm;62576;55.694;37.494;2023-05-27T00:21:53;59.28;56.29;65.10;;
74214;Laerm;62576;55.694;37.494;2023-05-27T00:24:23;58.81;55.91;63.72;;
74214;Laerm;62576;55.694;37.494;2023-05-27T00:26:53;59.73;55.81;67.48;;
74214;Laerm;62576;55.694;37.494;2023-05-27T00:29:23;58.87;55.11;68.86;;
74214;Laerm;62576;55.694;37.494;2023-05-27T00:31:55;59.30;55.67;68.64;;
74214;Laerm;62576;55.694;37.494;2023-05-27T00:34:27;59.21;55.72;64.10;;
74214;Laerm;62576;55.694;37.494;2023-05-27T00:36:57;58.95;55.28;68.33;;
74214;Laerm;62576;55.694;37.494;2023-05-27T00:39:24;58.77;55.26;71.14;;
74214;Laerm;62576;55.694;37.494;2023-05-27T00:41:57;59.71;55.90;71.24;;
74214;Laerm;62576;55.694;37.494;2023-05-27T00:44:28;61.88;55.95;79.55;;
74214;Laerm;62576;55.694;37.494;2023-05-27T00:46:59;60.01;55.35;74.39;;
74214;Laerm;62576;55.694;37.494;2023-05-27T00:49:29;60.31;55.83;73.51;;
74214;Laerm;62576;55.694;37.494;2023-05-27T00:52:00;59.18;55.70;66.48;;
74214;Laerm;62576;55.694;37.494;2023-05-27T00:54:30;64.52;55.70;84.34;;
74214;Laerm;62576;55.694;37.494;2023-05-27T00:57:01;59.13;55.65;75.21;;
74214;Laerm;62576;55.694;37.494;2023-05-27T00:59:32;59.51;55.62;65.81;;
74214;Laerm;62576;55.694;37.494;2023-05-27T01:02:04;59.90;55.62;68.71;;
74214;Laerm;62576;55.694;37.494;2023-05-27T01:04:35;58.83;55.44;65.94;;
74214;Laerm;62576;55.694;37.494;2023-05-27T01:07:10;59.05;55.76;65.98;;
74214;Laerm;62576;55.694;37.494;2023-05-27T01:09:44;57.80;55.23;62.02;;
74214;Laerm;62576;55.694;37.494;2023-05-27T01:12:24;58.20;55.22;66.33;;
74214;Laerm;62576;55.694;37.494;2023-05-27T01:14:58;60.49;55.79;72.90;;
74214;Laerm;62576;55.694;37.494;2023-05-27T01:17:32;59.13;55.65;65.05;;
74214;Laerm;62576;55.694;37.494;2023-05-27T01:20:06;58.27;55.31;63.70;;
74214;Laerm;62576;55.694;37.494;2023-05-27T01:22:40;61.35;55.83;70.41;;
74214;Laerm;62576;55.694;37.494;2023-05-27T01:25:11;60.36;55.47;69.85;;
74214;Laerm;62576;55.694;37.494;2023-05-27T01:27:41;60.59;56.19;74.99;;
74214;Laerm;62576;55.694;37.494;2023-05-27T01:30:13;62.44;55.50;74.34;;
74214;Laerm;62576;55.694;37.494;2023-05-27T01:32:46;59.80;55.45;69.07;;
74214;Laerm;62576;55.694;37.494;2023-05-27T01:35:24;59.10;55.27;74.23;;
74214;Laerm;62576;55.694;37.494;2023-05-27T01:37:59;59.49;55.18;69.73;;
74214;Laerm;62576;55.694;37.494;2023-05-27T01:40:32;58.98;55.12;70.69;;
74214;Laerm;62576;55.694;37.494;2023-05-27T01:43:03;58.66;55.51;74.94;;
74214;Laerm;62576;55.694;37.494;2023-05-27T01:45:35;58.78;55.30;70.41;;
74214;Laerm;62576;55.694;37.494;2023-05-27T01:48:14;59.56;55.36;76.38;;
74214;Laerm;62576;55.694;37.494;2023-05-27T01:50:44;58.75;54.88;66.31;;
74214;Laerm;62576;55.694;37.494;2023-05-27T01:53:16;63.72;56.39;78.68;;
74214;Laerm;62576;55.694;37.494;2023-05-27T01:55:46;60.04;55.75;70.50;;
74214;Laerm;62576;55.694;37.494;2023-05-27T01:58:16;60.47;55.59;68.73;;
74214;Laerm;62576;55.694;37.494;2023-05-27T02:00:46;58.87;55.20;66.47;;
74214;Laerm;62576;55.694;37.494;2023-05-27T02:03:16;60.17;55.89;69.12;;
74214;Laerm;62576;55.694;37.494;2023-05-27T02:05:47;61.61;55.81;72.40;;
74214;Laerm;62576;55.694;37.494;2023-05-27T02:08:19;60.63;55.73;71.23;;
74214;Laerm;62576;55.694;37.494;2023-05-27T02:10:49;60.29;55.90;72.24;;
74214;Laerm;62576;55.694;37.494;2023-05-27T02:13:19;58.72;55.23;73.19;;
74214;Laerm;62576;55.694;37.494;2023-05-27T02:15:48;59.98;56.07;67.37;;
74214;Laerm;62576;55.694;37.494;2023-05-27T02:18:21;59.50;55.67;71.67;;
74214;Laerm;62576;55.694;37.494;2023-05-27T02:20:51;58.81;55.92;71.20;;
74214;Laerm;62576;55.694;37.494;2023-05-27T02:23:23;58.79;55.13;76.67;;
74214;Laerm;62576;55.694;37.494;2023-05-27T02:25:53;59.33;56.09;66.94;;
74214;Laerm;62576;55.694;37.494;2023-05-27T02:28:24;62.22;55.18;71.96;;
74214;Laerm;62576;55.694;37.494;2023-05-27T02:30:54;59.34;55.76;73.73;;
74214;Laerm;62576;55.694;37.494;2023-05-27T02:33:24;59.77;55.40;65.62;;
74214;Laerm;62576;55.694;37.494;2023-05-27T02:35:54;61.06;56.00;81.09;;
74214;Laerm;62576;55.694;37.494;2023-05-27T02:38:25;59.44;55.91;64.59;;
74214;Laerm;62576;55.694;37.494;2023-05-27T02:40:55;61.28;55.44;76.81;;
74214;Laerm;62576;55.694;37.494;2023-05-27T02:43:25;59.57;55.56;68.66;;
74214;Laerm;62576;55.694;37.494;2023-05-27T02:45:55;59.78;55.33;69.52;;
74214;Laerm;62576;55.694;37.494;2023-05-27T02:48:28;61.39;56.71;73.63;;
74214;Laerm;62576;55.694;37.494;2023-05-27T02:50:57;62.35;56.12;72.02;;
74214;Laerm;62576;55.694;37.494;2023-05-27T02:53:29;61.10;56.07;71.73;;
74214;Laerm;62576;55.694;37.494;2023-05-27T02:55:59;61.81;55.68;72.17;;
74214;Laerm;62576;55.694;37.494;2023-05-27T02:58:29;58.86;56.01;77.40;;
74214;Laerm;62576;55.694;37.494;2023-05-27T03:00:59;60.92;56.01;80.52;;
74214;Laerm;62576;55.694;37.494;2023-05-27T03:03:29;60.93;56.66;73.94;;
74214;Laerm;62576;55.694;37.494;2023-05-27T03:05:59;59.52;56.41;65.78;;
74214;Laerm;62576;55.694;37.494;2023-05-27T03:08:30;60.23;55.94;78.90;;
74214;Laerm;62576;55.694;37.494;2023-05-27T03:11:00;60.17;55.80;74.82;;
74214;Laerm;62576;55.694;37.494;2023-05-27T03:13:30;60.19;56.01;65.85;;
74214;Laerm;62576;55.694;37.494;2023-05-27T03:16:00;59.77;55.94;73.59;;
74214;Laerm;62576;55.694;37.494;2023-05-27T03:18:31;60.07;55.68;76.10;;
74214;Laerm;62576;55.694;37.494;2023-05-27T03:21:01;60.78;56.26;72.91;;
74214;Laerm;62576;55.694;37.494;2023-05-27T03:23:33;59.42;56.17;75.33;;
74214;Laerm;62576;55.694;37.494;2023-05-27T03:26:05;61.43;56.78;76.96;;
74214;Laerm;62576;55.694;37.494;2023-05-27T03:28:35;66.90;56.45;82.38;;
74214;Laerm;62576;55.694;37.494;2023-05-27T03:31:05;59.68;56.04;65.80;;
74214;Laerm;62576;55.694;37.494;2023-05-27T03:33:34;60.96;56.57;66.46;;
74214;Laerm;62576;55.694;37.494;2023-05-27T03:36:05;60.82;56.46;67.15;;
74214;Laerm;62576;55.694;37.494;2023-05-27T03:38:37;60.39;56.48;66.23;;
74214;Laerm;62576;55.694;37.494;2023-05-27T03:41:10;62.09;56.81;70.28;;
74214;Laerm;62576;55.694;37.494;2023-05-27T03:43:40;61.70;57.54;72.67;;
74214;Laerm;62576;55.694;37.494;2023-05-27T03:46:12;61.81;57.29;79.33;;
74214;Laerm;62576;55.694;37.494;2023-05-27T03:48:42;60.67;56.41;75.85;;
74214;Laerm;62576;55.694;37.494;2023-05-27T03:51:12;61.69;56.80;70.09;;
74214;Laerm;62576;55.694;37.494;2023-05-27T03:53:46;59.92;56.25;66.53;;
74214;Laerm;62576;55.694;37.494;2023-05-27T03:56:16;61.33;56.61;72.67;;
74214;Laerm;62576;55.694;37.494;2023-05-27T03:58:47;60.72;57.16;74.36;;
74214;Laerm;62576;55.694;37.494;2023-05-27T04:01:17;61.53;56.80;74.90;;
74214;Laerm;62576;55.694;37.494;2023-05-27T04:03:45;61.16;56.75;69.46;;
74214;Laerm;62576;55.694;37.494;2023-05-27T04:06:16;62.16;57.17;79.12;;
74214;Laerm;62576;55.694;37.494;2023-05-27T04:08:47;61.71;57.07;73.60;;
74214;Laerm;62576;55.694;37.494;2023-05-27T04:11:17;62.75;57.86;72.52;;
74214;Laerm;62576;55.694;37.494;2023-05-27T04:13:46;62.68;56.73;79.16;;
74214;Laerm;62576;55.694;37.494;2023-05-27T04:16:17;61.82;58.07;74.79;;
74214;Laerm;62576;55.694;37.494;2023-05-27T04:18:47;62.32;57.78;70.82;;
74214;Laerm;62576;55.694;37.494;2023-05-27T04:21:19;61.98;58.21;68.63;;
74214;Laerm;62576;55.694;37.494;2023-05-27T04:23:51;61.57;57.26;73.22;;
74214;Laerm;62576;55.694;37.494;2023-05-27T04:26:21;61.12;57.27;71.81;;
74214;Laerm;62576;55.694;37.494;2023-05-27T04:28:51;62.57;56.96;81.10;;
74214;Laerm;62576;55.694;37.494;2023-05-27T04:31:21;62.64;57.10;79.42;;
74214;Laerm;62576;55.694;37.494;2023-05-27T04:33:51;61.56;56.98;71.44;;
74214;Laerm;62576;55.694;37.494;2023-05-27T04:36:22;62.60;57.72;69.99;;
74214;Laerm;62576;55.694;37.494;2023-05-27T04:38:52;62.54;57.47;81.33;;
74214;Laerm;62576;55.694;37.494;2023-05-27T04:41:22;63.96;56.47;76.61;;
74214;Laerm;62576;55.694;37.494;2023-05-27T04:43:56;62.15;56.18;71.61;;
74214;Laerm;62576;55.694;37.494;2023-05-27T04:46:26;63.59;57.07;81.45;;
74214;Laerm;62576;55.694;37.494;2023-05-27T04:48:56;64.48;57.61;81.15;;
74214;Laerm;62576;55.694;37.494;2023-05-27T04:51:26;63.50;57.82;80.85;;
74214;Laerm;62576;55.694;37.494;2023-05-27T04:53:57;63.56;56.43;75.52;;
74214;Laerm;62576;55.694;37.494;2023-05-27T04:56:29;63.14;57.51;78.88;;
74214;Laerm;62576;55.694;37.494;2023-05-27T04:58:59;63.66;57.08;75.85;;
74214;Laerm;62576;55.694;37.494;2023-05-27T05:01:29;63.95;58.51;79.42;;
74214;Laerm;62576;55.694;37.494;2023-05-27T05:04:17;63.16;57.34;74.04;;
74214;Laerm;62576;55.694;37.494;2023-05-27T05:06:47;62.07;57.12;78.34;;
74214;Laerm;62576;55.694;37.494;2023-05-27T05:09:18;63.70;57.95;75.10;;
74214;Laerm;62576;55.694;37.494;2023-05-27T05:11:49;62.78;57.55;81.80;;
74214;Laerm;62576;55.694;37.494;2023-05-27T05:14:19;64.45;57.05;84.11;;
74214;Laerm;62576;55.694;37.494;2023-05-27T05:16:59;64.13;58.35;70.11;;
74214;Laerm;62576;55.694;37.494;2023-05-27T05:19:30;64.81;57.33;81.04;;
74214;Laerm;62576;55.694;37.494;2023-05-27T05:22:00;62.81;57.67;75.22;;
74214;Laerm;62576;55.694;37.494;2023-05-27T05:24:31;63.48;57.75;78.67;;
74214;Laerm;62576;55.694;37.494;2023-05-27T05:27:01;63.02;58.29;72.28;;
74214;Laerm;62576;55.694;37.494;2023-05-27T05:29:31;63.47;57.56;77.37;;
74214;Laerm;62576;55.694;37.494;2023-05-27T05:32:01;63.82;57.78;71.35;;
74214;Laerm;62576;55.694;37.494;2023-05-27T05:34:31;64.27;59.51;69.86;;
74214;Laerm;62576;55.694;37.494;2023-05-27T05:37:00;62.95;57.23;69.59;;
74214;Laerm;62576;55.694;37.494;2023-05-27T05:39:27;64.19;58.20;75.69;;
74214;Laerm;62576;55.694;37.494;2023-05-27T05:41:59;63.41;58.27;73.71;;
74214;Laerm;62576;55.694;37.494;2023-05-27T05:44:29;64.66;58.06;72.48;;
74214;Laerm;62576;55.694;37.494;2023-05-27T05:46:59;65.28;58.34;76.07;;
74214;Laerm;62576;55.694;37.494;2023-05-27T05:49:28;64.72;59.51;72.60;;
74214;Laerm;62576;55.694;37.494;2023-05-27T05:51:58;64.42;59.45;75.46;;
74214;Laerm;62576;55.694;37.494;2023-05-27T05:54:28;64.13;59.68;73.53;;
74214;Laerm;62576;55.694;37.494;2023-05-27T05:57:01;63.86;58.81;75.08;;
74214;Laerm;62576;55.694;37.494;2023-05-27T05:59:31;64.34;59.19;71.49;;
74214;Laerm;62576;55.694;37.494;2023-05-27T06:02:01;64.51;57.09;75.34;;
74214;Laerm;62576;55.694;37.494;2023-05-27T06:04:31;64.03;59.01;73.89;;
74214;Laerm;62576;55.694;37.494;2023-05-27T06:07:04;64.12;57.53;69.74;;
74214;Laerm;62576;55.694;37.494;2023-05-27T06:09:34;63.58;58.79;77.41;;
74214;Laerm;62576;55.694;37.494;2023-05-27T06:12:06;64.32;59.06;75.57;;
74214;Laerm;62576;55.694;37.494;2023-05-27T06:14:37;64.37;59.03;71.00;;
74214;Laerm;62576;55.694;37.494;2023-05-27T06:17:06;63.50;57.72;78.35;;
74214;Laerm;62576;55.694;37.494;2023-05-27T06:19:39;64.64;59.91;69.77;;
74214;Laerm;62576;55.694;37.494;2023-05-27T06:22:11;64.61;58.82;77.41;;
74214;Laerm;62576;55.694;37.494;2023-05-27T06:24:41;64.16;58.47;73.29;;
74214;Laerm;62576;55.694;37.494;2023-05-27T06:27:13;64.56;58.55;76.51;;
74214;Laerm;62576;55.694;37.494;2023-05-27T06:29:43;64.85;59.13;73.05;;
74214;Laerm;62576;55.694;37.494;2023-05-27T06:32:13;64.80;58.77;81.55;;
74214;Laerm;62576;55.694;37.494;2023-05-27T06:34:43;65.39;59.49;78.83;;
74214;Laerm;62576;55.694;37.494;2023-05-27T06:37:13;68.53;61.11;76.31;;
74214;Laerm;62576;55.694;37.494;2023-05-27T06:39:40;67.47;59.13;79.30;;
74214;Laerm;62576;55.694;37.494;2023-05-27T06:42:10;67.66;60.92;79.28;;
74214;Laerm;62576;55.694;37.494;2023-05-27T06:44:41;68.25;58.06;86.38;;
74214;Laerm;62576;55.694;37.494;2023-05-27T06:47:12;65.42;58.31;74.09;;
74214;Laerm;62576;55.694;37.494;2023-05-27T06:49:42;65.68;60.14;71.59;;
74214;Laerm;62576;55.694;37.494;2023-05-27T06:52:12;65.29;59.35;73.30;;
74214;Laerm;62576;55.694;37.494;2023-05-27T06:54:42;67.32;61.88;73.13;;
74214;Laerm;62576;55.694;37.494;2023-05-27T06:57:12;66.15;60.02;76.75;;
74214;Laerm;62576;55.694;37.494;2023-05-27T06:59:44;64.20;58.87;78.39;;
74214;Laerm;62576;55.694;37.494;2023-05-27T07:02:14;64.82;59.17;78.58;;
74214;Laerm;62576;55.694;37.494;2023-05-27T07:04:47;64.52;59.57;72.16;;
74214;Laerm;62576;55.694;37.494;2023-05-27T07:07:17;64.97;59.36;75.99;;
74214;Laerm;62576;55.694;37.494;2023-05-27T07:09:47;65.46;60.78;74.31;;
74214;Laerm;62576;55.694;37.494;2023-05-27T07:12:17;65.13;60.07;82.00;;
74214;Laerm;62576;55.694;37.494;2023-05-27T07:14:49;64.39;58.89;72.14;;
74214;Laerm;62576;55.694;37.494;2023-05-27T07:17:19;64.93;59.12;81.92;;
74214;Laerm;62576;55.694;37.494;2023-05-27T07:19:49;68.70;58.71;90.97;;
74214;Laerm;62576;55.694;37.494;2023-05-27T07:22:19;68.38;59.96;86.03;;
74214;Laerm;62576;55.694;37.494;2023-05-27T07:24:49;66.80;59.18;82.14;;
74214;Laerm;62576;55.694;37.494;2023-05-27T07:27:19;66.38;59.65;80.65;;
74214;Laerm;62576;55.694;37.494;2023-05-27T07:29:54;65.75;60.18;76.67;;
74214;Laerm;62576;55.694;37.494;2023-05-27T07:32:30;64.67;58.08;79.45;;
74214;Laerm;62576;55.694;37.494;2023-05-27T07:35:00;64.73;56.96;78.35;;
74214;Laerm;62576;55.694;37.494;2023-05-27T07:37:30;64.88;58.41;78.00;;
74214;Laerm;62576;55.694;37.494;2023-05-27T07:40:00;65.61;59.23;79.35;;
74214;Laerm;62576;55.694;37.494;2023-05-27T07:42:31;65.62;59.81;77.13;;
74214;Laerm;62576;55.694;37.494;2023-05-27T07:45:04;64.42;59.28;77.20;;
74214;Laerm;62576;55.694;37.494;2023-05-27T07:47:36;64.96;59.45;77.07;;
74214;Laerm;62576;55.694;37.494;2023-05-27T07:50:06;65.36;60.04;76.95;;
74214;Laerm;62576;55.694;37.494;2023-05-27T07:52:39;65.04;60.01;72.82;;
74214;Laerm;62576;55.694;37.494;2023-05-27T07:55:08;65.36;60.72;78.31;;
74214;Laerm;62576;55.694;37.494;2023-05-27T07:57:38;65.15;58.95;74.33;;
74214;Laerm;62576;55.694;37.494;2023-05-27T08:00:12;65.36;59.31;74.42;;
74214;Laerm;62576;55.694;37.494;2023-05-27T08:02:42;65.93;59.13;77.48;;
74214;Laerm;62576;55.694;37.494;2023-05-27T08:05:12;66.07;59.78;82.63;;
74214;Laerm;62576;55.694;37.494;2023-05-27T08:07:42;66.87;61.59;82.33;;
74214;Laerm;62576;55.694;37.494;2023-05-27T08:10:12;66.13;60.60;75.34;;
74214;Laerm;62576;55.694;37.494;2023-05-27T08:12:42;66.26;59.92;75.67;;
74214;Laerm;62576;55.694;37.494;2023-05-27T08:15:14;65.70;58.85;75.83;;
74214;Laerm;62576;55.694;37.494;2023-05-27T08:17:44;65.80;57.89;73.17;;
74214;Laerm;62576;55.694;37.494;2023-05-27T08:20:14;65.54;58.69;71.00;;
74214;Laerm;62576;55.694;37.494;2023-05-27T08:22:44;65.55;59.10;76.41;;
74214;Laerm;62576;55.694;37.494;2023-05-27T08:25:15;66.97;58.82;87.58;;
74214;Laerm;62576;55.694;37.494;2023-05-27T08:27:50;65.64;58.82;77.32;;
74214;Laerm;62576;55.694;37.494;2023-05-27T08:30:22;66.16;54.84;81.72;;
74214;Laerm;62576;55.694;37.494;2023-05-27T08:32:52;65.84;58.23;74.54;;
74214;Laerm;62576;55.694;37.494;2023-05-27T08:35:22;65.74;57.62;76.32;;
74214;Laerm;62576;55.694;37.494;2023-05-27T08:37:52;66.68;59.72;83.89;;
74214;Laerm;62576;55.694;37.494;2023-05-27T08:40:22;66.25;60.62;79.09;;
74214;Laerm;62576;55.694;37.494;2023-05-27T08:42:55;66.15;60.40;81.57;;
74214;Laerm;62576;55.694;37.494;2023-05-27T08:45:26;69.10;59.66;90.35;;
74214;Laerm;62576;55.694;37.494;2023-05-27T08:47:57;65.43;59.00;73.65;;
74214;Laerm;62576;55.694;37.494;2023-05-27T08:50:27;66.20;59.56;78.07;;
74214;Laerm;62576;55.694;37.494;2023-05-27T08:52:57;67.31;60.48;73.98;;
74214;Laerm;62576;55.694;37.494;2023-05-27T08:55:29;68.79;59.66;88.54;;
74214;Laerm;62576;55.694;37.494;2023-05-27T08:58:01;67.71;59.99;83.83;;
74214;Laerm;62576;55.694;37.494;2023-05-27T09:00:32;66.97;57.99;83.40;;
74214;Laerm;62576;55.694;37.494;2023-05-27T09:03:03;65.76;58.54;83.61;;
74214;Laerm;62576;55.694;37.494;2023-05-27T09:05:33;65.48;57.95;85.29;;
74214;Laerm;62576;55.694;37.494;2023-05-27T09:08:03;67.42;59.22;83.33;;
74214;Laerm;62576;55.694;37.494;2023-05-27T09:10:40;68.56;59.02;90.05;;
74214;Laerm;62576;55.694;37.494;2023-05-27T09:13:11;66.03;58.39;80.65;;
74214;Laerm;62576;55.694;37.494;2023-05-27T09:15:42;66.51;59.88;80.15;;
74214;Laerm;62576;55.694;37.494;2023-05-27T09:18:12;66.01;58.28;76.95;;
74214;Laerm;62576;55.694;37.494;2023-05-27T09:20:42;64.94;58.96;76.61;;
74214;Laerm;62576;55.694;37.494;2023-05-27T09:23:13;64.53;58.44;77.87;;
74214;Laerm;62576;55.694;37.494;2023-05-27T09:25:42;65.91;60.09;80.05;;
74214;Laerm;62576;55.694;37.494;2023-05-27T09:28:12;66.39;57.57;81.95;;
74214;Laerm;62576;55.694;37.494;2023-05-27T09:30:58;66.01;58.55;87.70;;
74214;Laerm;62576;55.694;37.494;2023-05-27T09:33:30;65.08;57.50;79.82;;
74214;Laerm;62576;55.694;37.494;2023-05-27T09:36:02;65.58;58.61;78.54;;
74214;Laerm;62576;55.694;37.494;2023-05-27T09:38:34;65.15;58.62;76.44;;
74214;Laerm;62576;55.694;37.494;2023-05-27T09:41:04;66.17;57.86;78.79;;
74214;Laerm;62576;55.694;37.494;2023-05-27T09:43:34;65.94;57.49;77.89;;
74214;Laerm;62576;55.694;37.494;2023-05-27T09:46:11;67.12;58.56;83.39;;
74214;Laerm;62576;55.694;37.494;2023-05-27T09:48:42;66.44;58.56;82.28;;
74214;Laerm;62576;55.694;37.494;2023-05-27T09:51:12;65.37;56.89;82.17;;
74214;Laerm;62576;55.694;37.494;2023-05-27T09:53:44;64.38;58.46;76.71;;
74214;Laerm;62576;55.694;37.494;2023-05-27T09:56:16;66.49;59.82;83.07;;
74214;Laerm;62576;55.694;37.494;2023-05-27T09:58:46;64.94;56.45;76.62;;
74214;Laerm;62576;55.694;37.494;2023-05-27T10:01:18;65.25;58.35;80.45;;
74214;Laerm;62576;55.694;37.494;2023-05-27T10:03:49;65.33;58.54;76.68;;
74214;Laerm;62576;55.694;37.494;2023-05-27T10:06:20;67.33;58.17;91.05;;
74214;Laerm;62576;55.694;37.494;2023-05-27T10:08:52;66.54;60.03;84.19;;
74214;Laerm;62576;55.694;37.494;2023-05-27T10:11:24;67.49;62.04;81.84;;
74214;Laerm;62576;55.694;37.494;2023-05-27T10:13:55;66.42;61.55;77.74;;
74214;Laerm;62576;55.694;37.494;2023-05-27T10:16:27;65.48;61.09;78.90;;
74214;Laerm;62576;55.694;37.494;2023-05-27T10:18:58;67.57;60.16;84.41;;
74214;Laerm;62576;55.694;37.494;2023-05-27T10:21:29;65.99;59.71;80.17;;
74214;Laerm;62576;55.694;37.494;2023-05-27T10:24:01;69.49;63.06;87.11;;
74214;Laerm;62576;55.694;37.494;2023-05-27T10:26:32;66.82;61.27;75.92;;
74214;Laerm;62576;55.694;37.494;2023-05-27T10:29:07;67.64;60.17;77.74;;
74214;Laerm;62576;55.694;37.494;2023-05-27T10:31:45;65.83;49.16;79.90;;
74214;Laerm;62576;55.694;37.494;2023-05-27T10:34:15;66.76;56.39;83.43;;
74214;Laerm;62576;55.694;37.494;2023-05-27T10:36:45;65.64;59.51;84.04;;
74214;Laerm;62576;55.694;37.494;2023-05-27T10:39:14;65.35;59.03;75.55;;
74214;Laerm;62576;55.694;37.494;2023-05-27T10:41:49;66.50;58.69;81.47;;
74214;Laerm;62576;55.694;37.494;2023-05-27T10:44:26;67.29;59.89;82.67;;
74214;Laerm;62576;55.694;37.494;2023-05-27T10:47:01;67.33;60.13;88.48;;
74214;Laerm;62576;55.694;37.494;2023-05-27T10:49:34;65.18;59.90;75.02;;
74214;Laerm;62576;55.694;37.494;2023-05-27T10:52:08;65.20;59.72;77.91;;
74214;Laerm;62576;55.694;37.494;2023-05-27T10:54:42;68.21;58.69;84.53;;
74214;Laerm;62576;55.694;37.494;2023-05-27T10:57:15;65.83;60.22;81.33;;
74214;Laerm;62576;55.694;37.494;2023-05-27T10:59:48;65.46;60.04;78.26;;
74214;Laerm;62576;55.694;37.494;2023-05-27T11:02:20;65.56;58.64;78.70;;
74214;Laerm;62576;55.694;37.494;2023-05-27T11:04:50;65.70;59.13;80.24;;
74214;Laerm;62576;55.694;37.494;2023-05-27T11:07:21;64.44;59.76;74.32;;
74214;Laerm;62576;55.694;37.494;2023-05-27T11:09:54;65.99;58.97;79.11;;
74214;Laerm;62576;55.694;37.494;2023-05-27T11:12:26;68.68;59.02;87.22;;
74214;Laerm;62576;55.694;37.494;2023-05-27T11:14:57;65.22;57.80;76.75;;
74214;Laerm;62576;55.694;37.494;2023-05-27T11:17:28;64.74;58.61;78.68;;
74214;Laerm;62576;55.694;37.494;2023-05-27T11:19:58;65.50;57.40;81.81;;
74214;Laerm;62576;55.694;37.494;2023-05-27T11:22:31;65.94;57.95;77.55;;
74214;Laerm;62576;55.694;37.494;2023-05-27T11:25:03;65.66;54.81;72.87;;
74214;Laerm;62576;55.694;37.494;2023-05-27T11:27:36;65.62;59.08;77.47;;
74214;Laerm;62576;55.694;37.494;2023-05-27T11:30:07;68.40;59.03;85.70;;
74214;Laerm;62576;55.694;37.494;2023-05-27T11:32:41;66.10;59.12;82.47;;
74214;Laerm;62576;55.694;37.494;2023-05-27T11:35:15;67.49;59.05;87.61;;
74214;Laerm;62576;55.694;37.494;2023-05-27T11:37:46;67.00;56.73;77.76;;
74214;Laerm;62576;55.694;37.494;2023-05-27T11:40:16;65.35;59.05;79.12;;
74214;Laerm;62576;55.694;37.494;2023-05-27T11:42:47;64.34;56.96;73.40;;
74214;Laerm;62576;55.694;37.494;2023-05-27T11:45:19;65.24;56.07;71.34;;
74214;Laerm;62576;55.694;37.494;2023-05-27T11:47:51;71.29;58.93;88.42;;
74214;Laerm;62576;55.694;37.494;2023-05-27T11:50:22;66.12;59.27;81.39;;
74214;Laerm;62576;55.694;37.494;2023-05-27T11:52:57;65.53;58.79;72.77;;
74214;Laerm;62576;55.694;37.494;2023-05-27T11:55:32;66.43;61.70;78.11;;
74214;Laerm;62576;55.694;37.494;2023-05-27T11:58:02;68.09;60.47;85.09;;
74214;Laerm;62576;55.694;37.494;2023-05-27T12:00:34;67.39;58.83;85.93;;
74214;Laerm;62576;55.694;37.494;2023-05-27T12:03:05;67.19;60.00;85.52;;
74214;Laerm;62576;55.694;37.494;2023-05-27T12:05:35;65.68;59.59;82.43;;
74214;Laerm;62576;55.694;37.494;2023-05-27T12:08:06;66.55;60.13;81.52;;
74214;Laerm;62576;55.694;37.494;2023-05-27T12:10:36;64.67;59.65;78.55;;
74214;Laerm;62576;55.694;37.494;2023-05-27T12:13:06;68.74;60.96;83.67;;
74214;Laerm;62576;55.694;37.494;2023-05-27T12:15:36;67.76;59.59;91.66;;
74214;Laerm;62576;55.694;37.494;2023-05-27T12:18:08;65.91;60.41;70.55;;
74214;Laerm;62576;55.694;37.494;2023-05-27T12:20:38;66.47;60.56;84.13;;
74214;Laerm;62576;55.694;37.494;2023-05-27T12:23:08;67.17;60.72;76.76;;
74214;Laerm;62576;55.694;37.494;2023-05-27T12:25:38;67.52;61.58;87.78;;
74214;Laerm;62576;55.694;37.494;2023-05-27T12:28:09;68.13;61.72;78.10;;
74214;Laerm;62576;55.694;37.494;2023-05-27T12:30:39;66.37;60.52;72.61;;
74214;Laerm;62576;55.694;37.494;2023-05-27T12:33:10;66.95;62.05;82.69;;
74214;Laerm;62576;55.694;37.494;2023-05-27T12:35:41;65.77;60.06;77.34;;
74214;Laerm;62576;55.694;37.494;2023-05-27T12:38:12;65.19;58.74;71.24;;
74214;Laerm;62576;55.694;37.494;2023-05-27T12:40:42;68.19;58.32;88.26;;
74214;Laerm;62576;55.694;37.494;2023-05-27T12:43:12;66.53;57.85;83.16;;
74214;Laerm;62576;55.694;37.494;2023-05-27T12:45:42;66.25;59.34;74.91;;
74214;Laerm;62576;55.694;37.494;2023-05-27T12:48:13;67.16;58.83;81.42;;
74214;Laerm;62576;55.694;37.494;2023-05-27T12:50:43;66.43;57.58;81.01;;
74214;Laerm;62576;55.694;37.494;2023-05-27T12:53:13;64.41;58.15;78.08;;
74214;Laerm;62576;55.694;37.494;2023-05-27T12:55:43;66.90;48.85;83.92;;
74214;Laerm;62576;55.694;37.494;2023-05-27T12:58:13;65.04;55.65;81.79;;
74214;Laerm;62576;55.694;37.494;2023-05-27T13:00:44;67.81;62.50;85.00;;
74214;Laerm;62576;55.694;37.494;2023-05-27T13:03:15;67.52;62.88;77.99;;
74214;Laerm;62576;55.694;37.494;2023-05-27T13:05:45;65.04;58.04;75.23;;
74214;Laerm;62576;55.694;37.494;2023-05-27T13:08:15;66.28;59.84;76.34;;
74214;Laerm;62576;55.694;37.494;2023-05-27T13:10:45;65.27;59.17;73.42;;
74214;Laerm;62576;55.694;37.494;2023-05-27T13:13:15;68.46;59.23;85.36;;
74214;Laerm;62576;55.694;37.494;2023-05-27T13:15:45;66.21;59.17;80.95;;
74214;Laerm;62576;55.694;37.494;2023-05-27T13:18:17;65.93;55.66;80.24;;
74214;Laerm;62576;55.694;37.494;2023-05-27T13:20:47;67.39;59.12;86.84;;
74214;Laerm;62576;55.694;37.494;2023-05-27T13:23:17;65.27;57.83;72.15;;
74214;Laerm;62576;55.694;37.494;2023-05-27T13:25:47;65.26;59.21;72.15;;
74214;Laerm;62576;55.694;37.494;2023-05-27T13:28:17;64.90;58.10;71.20;;
74214;Laerm;62576;55.694;37.494;2023-05-27T13:30:47;64.56;59.94;70.56;;
74214;Laerm;62576;55.694;37.494;2023-05-27T13:33:19;64.78;59.59;69.21;;
74214;Laerm;62576;55.694;37.494;2023-05-27T13:35:49;65.42;58.56;73.94;;
74214;Laerm;62576;55.694;37.494;2023-05-27T13:38:16;65.34;59.19;75.29;;
74214;Laerm;62576;55.694;37.494;2023-05-27T13:40:46;65.31;50.33;76.36;;
74214;Laerm;62576;55.694;37.494;2023-05-27T13:43:16;65.48;58.49;76.00;;
74214;Laerm;62576;55.694;37.494;2023-05-27T13:45:46;65.23;59.14;72.16;;
74214;Laerm;62576;55.694;37.494;2023-05-27T13:48:17;65.53;60.14;79.91;;
74214;Laerm;62576;55.694;37.494;2023-05-27T13:50:48;68.52;58.94;81.76;;
74214;Laerm;62576;55.694;37.494;2023-05-27T13:53:18;70.34;60.18;87.29;;